Startpagina
METAR-TAF:

METAR-TAF

Vliegvelden :

Rabat, Marokko

Luchthaven Rabat-Sale

breedte: 34-03N, lengte: 006-46W, hoogte: 84 m

Actueel weer

Dit bericht is 37 minuten geleden gemaakt, om 10:30 UTC
Wind 6 kt uit het noordnoordwesten, variërend tussen het westnoordwesten en het noorden
Temperatuur 17°C
Vochtigheid 77%
Druk 1022 hPa
Zicht: 7000 m

METAR: GMME 291030Z 33006KT 290V350 7000 NSC 17/13 Q1022 NOSIG

Tijdstip: 12:07 (11:07 UTC)

Verwachting

Dit bericht is 6 uur en het 7 minuten geleden gemaakt, om 05:00 UTC
Verwachting geldig van 29 om 06 UTC tot 30 om 12 UTC
Wind 8 kt uit het noordwesten
Zicht: 8000 m
Tijdelijke
van 29 om 18 UTC tot 29 om 24 UTC
Wind 6 kt uit het zuiden
Tijdelijke
van 30 om 02 UTC tot 30 om 06 UTC
Wind 5 kt uit het zuidoosten
Zicht: 4000 m
Verspreide wolken op 1000 ft
nevel

TAF: GMME 290500Z 2906/3012 32008KT 8000 NSC TEMPO 2918/2924 18006KT PRO30 TEMPO 3002/3006 14005KT 4000 BR SCT010

Waarnemingen en weersverwachtingen van meer dan 4000 vliegvelden (METAR en TAF).

De beschikbare stations zijn de gele en rode punten op de kaart.

Ga met uw muis naar het station om de naam te zien.

Klik dan om waarnemingen en weersverwachtingen te zien.

kaart wijzigen: klik op de groene knoppen met een zwart kruis om in te zoomen, op de groene knop met een streepje om uit te zoomen of op de groene pijlen voor aangrenzende kaarten.


METAR-TAF: